Time;durP1;ratioP1;P1;durP2;ratioP2;P2;SDS_P1;SDS_P2;PMS_P1;PMS_P2;Temp;Humidity;BMP_temperature;BMP_pressure;BME280_temperature;BME280_humidity;BME280_pressure;Samples;Min_cycle;Max_cycle;Signal;HPM_P1;HPM_P2
2023/01/11 00:01:50;;;;;;;0.73;0.73;;;16.00;52.50;;;;;;5125455;27;45349;-76
2023/01/11 00:04:17;;;;;;;0.65;0.60;;;16.00;52.50;;;;;;5126127;27;45464;-77
2023/01/11 00:06:44;;;;;;;0.70;0.52;;;15.90;52.40;;;;;;5128033;27;45421;-76
2023/01/11 00:09:11;;;;;;;0.85;0.50;;;15.90;52.50;;;;;;5127978;27;45203;-77
2023/01/11 00:11:38;;;;;;;1.85;0.63;;;15.90;52.50;;;;;;5129942;27;45310;-76
2023/01/11 00:14:05;;;;;;;0.80;0.60;;;15.90;52.60;;;;;;5131289;27;45492;-76
2023/01/11 00:16:32;;;;;;;1.10;0.63;;;15.90;52.50;;;;;;5131456;27;45350;-76
2023/01/11 00:19:00;;;;;;;1.13;0.60;;;15.90;52.50;;;;;;5131633;27;45356;-76
2023/01/11 00:21:27;;;;;;;0.57;0.52;;;16.00;52.40;;;;;;5131707;27;45177;-76
2023/01/11 00:23:54;;;;;;;2.05;0.68;;;16.10;52.30;;;;;;5131350;27;45662;-75
2023/01/11 00:26:21;;;;;;;0.50;0.50;;;16.10;52.20;;;;;;5131208;27;45972;-77
2023/01/11 00:28:48;;;;;;;0.55;0.55;;;16.20;52.10;;;;;;5131514;27;45251;-76
2023/01/11 00:31:15;;;;;;;0.60;0.60;;;16.20;52.00;;;;;;5131520;27;45298;-76
2023/01/11 00:33:42;;;;;;;0.95;0.57;;;16.20;51.90;;;;;;5130634;27;45549;-76
2023/01/11 00:36:10;;;;;;;0.40;0.40;;;16.20;51.80;;;;;;5131161;27;45266;-76
2023/01/11 00:38:52;;;;;;;0.63;0.63;;;16.20;51.80;;;;;;5131419;27;45397;-76
2023/01/11 00:49:32;;;;;;;0.50;0.50;;;16.20;52.00;;;;;;5131152;27;45200;-76
2023/01/11 00:52:00;;;;;;;0.50;0.50;;;16.20;52.10;;;;;;5128492;27;45190;-76
2023/01/11 00:54:27;;;;;;;0.50;0.40;;;16.20;52.10;;;;;;5130776;27;46740;-76
2023/01/11 00:56:54;;;;;;;0.43;0.40;;;16.20;52.20;;;;;;5130646;27;45321;-77
2023/01/11 00:59:21;;;;;;;0.70;0.60;;;16.10;52.20;;;;;;5131084;27;45258;-77
2023/01/11 01:01:48;;;;;;;0.85;0.45;;;16.10;52.80;;;;;;5131287;27;45132;-76
2023/01/11 01:04:15;;;;;;;0.65;0.50;;;16.10;52.30;;;;;;5130676;27;46670;-76
2023/01/11 01:06:42;;;;;;;0.60;0.60;;;16.10;52.30;;;;;;5129928;27;45334;-76
2023/01/11 01:09:10;;;;;;;0.43;0.43;;;16.10;52.40;;;;;;5130827;27;45418;-76
2023/01/11 01:11:37;;;;;;;0.60;0.60;;;16.10;52.40;;;;;;5130741;27;45461;-76
2023/01/11 01:16:49;;;;;;;0.60;0.52;;;16.00;52.50;;;;;;5130750;27;45264;-76
2023/01/11 01:19:16;;;;;;;0.57;0.50;;;16.00;52.50;;;;;;5130441;27;45426;-76
2023/01/11 01:21:43;;;;;;;0.40;0.40;;;16.00;52.50;;;;;;5130392;27;45342;-76
2023/01/11 01:24:11;;;;;;;0.52;0.50;;;16.00;52.60;;;;;;5130177;27;46634;-76
2023/01/11 01:26:38;;;;;;;0.50;0.50;;;16.00;52.60;;;;;;5130596;27;45349;-76
2023/01/11 01:29:05;;;;;;;0.47;0.47;;;16.00;52.70;;;;;;5130288;27;45309;-76
2023/01/11 01:31:32;;;;;;;0.32;0.32;;;16.00;52.70;;;;;;5130581;27;45447;-76
2023/01/11 01:33:59;;;;;;;0.40;0.40;;;16.00;52.70;;;;;;5130105;27;45447;-76
2023/01/11 01:36:26;;;;;;;2.20;0.38;;;16.00;52.80;;;;;;5130190;27;45252;-76
2023/01/11 01:38:53;;;;;;;0.57;0.57;;;16.00;52.80;;;;;;5130352;27;45188;-76
2023/01/11 01:41:21;;;;;;;0.50;0.50;;;16.00;52.80;;;;;;5127833;27;45320;-76
2023/01/11 01:43:50;;;;;;;0.50;0.50;;;15.90;52.80;;;;;;5127258;27;46293;-76
2023/01/11 01:46:17;;;;;;;0.65;0.65;;;15.90;52.80;;;;;;5129993;27;45169;-76
2023/01/11 01:48:44;;;;;;;0.85;0.52;;;15.90;52.80;;;;;;5130028;27;45169;-76
2023/01/11 01:51:12;;;;;;;0.52;0.50;;;15.90;52.90;;;;;;5130224;27;45568;-76
2023/01/11 01:53:40;;;;;;;0.55;0.55;;;15.90;52.90;;;;;;5129710;27;46384;-76
2023/01/11 01:56:10;;;;;;;0.50;0.50;;;15.90;52.90;;;;;;5129117;27;45208;-76
2023/01/11 01:58:39;;;;;;;0.52;0.40;;;15.90;53.00;;;;;;5129304;27;45169;-76
2023/01/11 02:03:47;;;;;;;0.47;0.35;;;16.00;52.80;;;;;;5128208;27;45742;-75
2023/01/11 02:06:14;;;;;;;0.38;0.38;;;16.10;52.70;;;;;;5127133;27;45390;-76
2023/01/11 02:08:43;;;;;;;0.47;0.45;;;16.10;52.60;;;;;;5129688;27;45249;-75
2023/01/11 02:11:28;;;;;;;0.95;0.50;;;16.10;52.50;;;;;;5129946;27;45260;-76
2023/01/11 02:13:56;;;;;;;0.20;0.20;;;16.20;52.40;;;;;;5129386;27;46960;-76
2023/01/11 02:16:23;;;;;;;0.45;0.45;;;16.20;52.30;;;;;;5129305;27;46282;-76
2023/01/11 02:18:50;;;;;;;0.65;0.40;;;16.20;52.20;;;;;;5129465;27;45318;-76
2023/01/11 02:21:22;;;;;;;0.75;0.43;;;16.30;52.10;;;;;;5129762;27;45414;-76
2023/01/11 02:24:40;;;;;;;0.30;0.30;;;16.30;52.00;;;;;;5129294;27;46687;-76
2023/01/11 02:27:33;;;;;;;0.38;0.28;;;16.30;52.00;;;;;;5076603;27;45261;-76
2023/01/11 02:30:09;;;;;;;0.43;0.43;;;16.30;52.00;;;;;;5105699;27;45396;-75
2023/01/11 02:32:40;;;;;;;0.70;0.50;;;16.30;52.00;;;;;;5129282;27;45317;-76
2023/01/11 02:35:11;;;;;;;0.57;0.40;;;16.30;52.00;;;;;;5127361;27;46387;-78
2023/01/11 02:37:42;;;;;;;0.52;0.40;;;16.30;52.10;;;;;;5128339;27;45146;-76
2023/01/11 02:40:12;;;;;;;0.50;0.50;;;16.30;52.10;;;;;;5129167;27;45334;-77
2023/01/11 02:45:35;;;;;;;0.50;0.40;;;16.30;52.10;;;;;;5125652;27;45272;-78
2023/01/11 02:48:03;;;;;;;1.08;0.40;;;16.30;52.20;;;;;;5128258;27;45464;-77
2023/01/11 02:50:33;;;;;;;0.40;0.40;;;16.30;52.30;;;;;;5129067;27;45265;-75
2023/01/11 02:53:02;;;;;;;0.30;0.30;;;16.30;52.30;;;;;;5129560;27;45172;-76
2023/01/11 02:55:32;;;;;;;0.95;0.40;;;16.20;52.30;;;;;;5129078;27;46668;-76
2023/01/11 02:58:00;;;;;;;0.65;0.47;;;16.30;52.40;;;;;;5129172;27;45196;-76
2023/01/11 03:00:28;;;;;;;0.50;0.40;;;16.20;52.40;;;;;;5129018;27;45318;-76
2023/01/11 03:03:09;;;;;;;0.45;0.45;;;16.30;53.00;;;;;;5129050;27;45631;-76
2023/01/11 03:05:38;;;;;;;0.47;0.47;;;16.20;52.50;;;;;;5125949;27;45408;-75
2023/01/11 03:08:11;;;;;;;0.32;0.32;;;16.20;53.10;;;;;;5128725;27;45308;-76
2023/01/11 03:10:39;;;;;;;0.35;0.35;;;16.20;52.50;;;;;;5128800;27;45320;-76
2023/01/11 03:13:12;;;;;;;0.30;0.30;;;16.20;52.50;;;;;;5126203;27;45324;-76
2023/01/11 03:16:00;;;;;;;0.40;0.40;;;16.20;53.20;;;;;;5128596;27;46539;-76
2023/01/11 03:18:34;;;;;;;0.65;0.50;;;16.20;52.60;;;;;;5128671;27;45263;-76
2023/01/11 03:21:07;;;;;;;0.55;0.50;;;16.20;52.60;;;;;;5126175;27;45310;-75
2023/01/11 03:23:36;;;;;;;0.40;0.30;;;16.20;52.70;;;;;;5129016;27;45366;-78
2023/01/11 03:26:07;;;;;;;0.30;0.30;;;16.20;52.70;;;;;;5128321;27;46643;-78
2023/01/11 03:28:36;;;;;;;0.45;0.45;;;16.10;52.70;;;;;;5128646;27;45291;-76
2023/01/11 03:31:06;;;;;;;0.38;0.38;;;16.20;52.70;;;;;;5128504;27;45260;-78
2023/01/11 03:33:36;;;;;;;0.20;0.20;;;16.20;52.80;;;;;;5126007;27;45291;-75
2023/01/11 03:36:08;;;;;;;0.63;0.38;;;16.20;52.80;;;;;;5128167;27;46418;-78
2023/01/11 03:38:36;;;;;;;0.40;0.40;;;16.10;52.80;;;;;;5128197;27;45298;-76
2023/01/11 03:41:05;;;;;;;0.20;0.20;;;16.10;52.90;;;;;;5128123;27;45220;-75
2023/01/11 03:43:32;;;;;;;0.70;0.40;;;16.10;52.90;;;;;;5128590;27;45240;-75
2023/01/11 03:46:01;;;;;;;0.45;0.30;;;16.10;52.90;;;;;;5128072;27;45410;-77
2023/01/11 03:48:31;;;;;;;0.30;0.30;;;16.10;53.00;;;;;;5128141;27;45211;-77
2023/01/11 03:50:58;;;;;;;0.63;0.40;;;16.10;53.00;;;;;;5127826;27;45296;-77
2023/01/11 03:53:25;;;;;;;0.80;0.30;;;16.10;53.00;;;;;;5128204;27;45464;-77
2023/01/11 03:55:54;;;;;;;0.25;0.25;;;16.10;53.00;;;;;;5128074;27;45619;-78
2023/01/11 03:58:21;;;;;;;0.30;0.30;;;16.10;53.00;;;;;;5127740;27;45220;-78
2023/01/11 04:00:48;;;;;;;0.40;0.40;;;16.10;53.60;;;;;;5128202;27;45334;-77
2023/01/11 04:03:15;;;;;;;0.20;0.20;;;16.10;53.10;;;;;;5128494;27;45259;-77
2023/01/11 04:05:43;;;;;;;0.32;0.20;;;16.10;53.10;;;;;;5127529;27;46953;-77
2023/01/11 04:08:10;;;;;;;0.90;0.40;;;16.10;53.10;;;;;;5125236;27;45191;-77
2023/01/11 04:10:38;;;;;;;0.30;0.30;;;16.10;53.20;;;;;;5128298;27;45292;-77
2023/01/11 04:13:04;;;;;;;0.30;0.30;;;16.10;53.20;;;;;;5128129;27;45251;-75
2023/01/11 04:15:33;;;;;;;0.45;0.45;;;16.10;53.20;;;;;;5127726;27;46615;-75
2023/01/11 04:18:03;;;;;;;0.30;0.30;;;16.10;53.30;;;;;;5127914;27;45291;-77
2023/01/11 04:20:30;;;;;;;0.40;0.40;;;16.10;53.30;;;;;;5128368;27;45272;-77
2023/01/11 04:22:59;;;;;;;0.30;0.30;;;16.10;53.30;;;;;;5127985;27;45628;-77
2023/01/11 04:25:25;;;;;;;0.30;0.30;;;16.10;53.30;;;;;;5127646;27;47567;-77
2023/01/11 04:27:52;;;;;;;0.20;0.20;;;16.10;53.40;;;;;;5128002;27;45280;-77
2023/01/11 04:30:19;;;;;;;0.20;0.20;;;16.10;53.40;;;;;;5126893;27;45320;-77
2023/01/11 04:32:46;;;;;;;0.35;0.20;;;16.10;53.40;;;;;;5127874;27;45405;-77
2023/01/11 04:35:13;;;;;;;0.30;0.30;;;16.00;53.40;;;;;;5127487;27;45306;-78
2023/01/11 04:37:40;;;;;;;0.28;0.28;;;16.00;53.40;;;;;;5127656;27;45143;-77
2023/01/11 04:40:10;;;;;;;0.20;0.20;;;16.00;53.40;;;;;;5127808;27;45192;-76
2023/01/11 04:42:35;;;;;;;0.35;0.20;;;16.10;53.30;;;;;;5125256;27;45354;-76
2023/01/11 04:45:04;;;;;;;0.43;0.30;;;16.10;53.20;;;;;;5127528;27;46763;-76
2023/01/11 04:47:31;;;;;;;0.45;0.32;;;16.20;53.10;;;;;;5127503;27;45246;-76
2023/01/11 04:49:58;;;;;;;0.30;0.30;;;16.30;53.50;;;;;;5127159;27;45379;-76
2023/01/11 04:52:25;;;;;;;0.25;0.25;;;16.30;52.80;;;;;;5127693;27;45438;-77
2023/01/11 04:54:52;;;;;;;0.57;0.25;;;16.30;52.70;;;;;;5127239;27;46871;-76
2023/01/11 04:57:21;;;;;;;0.20;0.20;;;16.40;52.60;;;;;;5128521;27;45212;-76
2023/01/11 04:59:48;;;;;;;0.47;0.30;;;16.40;52.50;;;;;;5131129;27;45242;-76
2023/01/11 05:02:15;;;;;;;0.22;0.15;;;16.40;52.50;;;;;;5131089;27;44831;-76
2023/01/11 05:04:42;;;;;;;0.35;0.30;;;16.40;52.50;;;;;;5130839;27;46602;-76
2023/01/11 05:07:09;;;;;;;0.40;0.40;;;16.40;52.50;;;;;;5131102;27;45262;-76
2023/01/11 05:09:36;;;;;;;1.00;0.30;;;16.40;52.60;;;;;;5130906;27;45200;-76
2023/01/11 05:12:03;;;;;;;0.35;0.30;;;16.40;52.60;;;;;;5130701;27;45589;-76
2023/01/11 05:14:31;;;;;;;0.80;0.30;;;16.40;52.60;;;;;;5129471;27;45307;-76
2023/01/11 05:16:58;;;;;;;0.30;0.30;;;16.40;53.30;;;;;;5130728;27;45282;-76
2023/01/11 05:19:25;;;;;;;0.20;0.20;;;16.40;52.70;;;;;;5127988;27;45134;-76
2023/01/11 05:21:52;;;;;;;0.40;0.40;;;16.30;52.70;;;;;;5130552;27;45141;-76
2023/01/11 05:24:19;;;;;;;0.22;0.17;;;16.30;52.70;;;;;;5129939;27;46635;-75
2023/01/11 05:26:48;;;;;;;0.20;0.20;;;16.30;52.70;;;;;;5130233;27;45286;-76
2023/01/11 05:29:17;;;;;;;0.85;0.20;;;16.30;53.40;;;;;;5130720;27;45189;-75
2023/01/11 05:31:45;;;;;;;0.25;0.25;;;16.30;52.80;;;;;;5130602;27;45356;-76
2023/01/11 05:34:13;;;;;;;0.22;0.22;;;16.30;52.90;;;;;;5130106;27;45820;-75
2023/01/11 05:36:39;;;;;;;0.40;0.30;;;16.30;52.90;;;;;;5130161;27;45232;-75
2023/01/11 05:39:06;;;;;;;0.30;0.30;;;16.30;52.90;;;;;;5130371;27;45204;-75
2023/01/11 05:41:33;;;;;;;0.20;0.20;;;16.30;53.00;;;;;;5130791;27;45304;-75
2023/01/11 05:46:46;;;;;;;0.20;0.13;;;16.30;53.00;;;;;;5130543;27;45332;-75
2023/01/11 05:49:13;;;;;;;0.32;0.20;;;16.30;53.10;;;;;;5130141;27;45274;-76
2023/01/11 05:51:40;;;;;;;0.20;0.20;;;16.20;53.10;;;;;;5130437;27;45485;-76
2023/01/11 05:54:10;;;;;;;0.20;0.20;;;16.20;53.10;;;;;;5129774;27;45635;-76
2023/01/11 05:56:36;;;;;;;0.20;0.20;;;16.20;53.20;;;;;;5127392;27;45407;-76
2023/01/11 05:59:03;;;;;;;0.10;0.10;;;16.20;53.20;;;;;;5130084;27;45303;-75
2023/01/11 06:01:30;;;;;;;0.15;0.15;;;16.20;53.20;;;;;;5129574;27;45399;-75
2023/01/11 06:03:59;;;;;;;0.10;0.10;;;16.20;53.20;;;;;;5129444;27;46662;-75
2023/01/11 06:06:26;;;;;;;0.08;0.08;;;16.20;53.20;;;;;;5129766;27;45323;-75
2023/01/11 06:08:53;;;;;;;0.13;0.13;;;16.20;53.30;;;;;;5130366;27;45341;-75
2023/01/11 06:11:20;;;;;;;0.25;0.20;;;16.10;53.30;;;;;;5127531;27;45287;-75
2023/01/11 06:13:47;;;;;;;0.10;0.10;;;16.20;53.30;;;;;;5129452;27;46390;-77
2023/01/11 06:16:14;;;;;;;0.20;0.20;;;16.20;53.30;;;;;;5127104;27;45259;-77
2023/01/11 06:18:42;;;;;;;0.25;0.25;;;16.20;53.40;;;;;;5129757;27;45298;-77
2023/01/11 06:21:10;;;;;;;0.28;0.17;;;16.20;53.40;;;;;;5127221;27;45339;-77
2023/01/11 06:23:38;;;;;;;0.15;0.15;;;16.10;53.40;;;;;;5126701;27;46656;-77
2023/01/11 06:26:07;;;;;;;0.30;0.30;;;16.20;53.40;;;;;;5126951;27;45262;-77
2023/01/11 06:28:34;;;;;;;0.30;0.30;;;16.10;53.50;;;;;;5129524;27;45233;-77
2023/01/11 06:31:01;;;;;;;0.22;0.22;;;16.10;53.40;;;;;;5129667;27;45323;-77
2023/01/11 06:33:28;;;;;;;0.63;0.50;;;16.10;53.50;;;;;;5129696;27;47277;-77
2023/01/11 06:35:55;;;;;;;0.73;0.43;;;16.10;53.50;;;;;;5129734;27;45315;-77
2023/01/11 06:38:24;;;;;;;0.30;0.30;;;16.10;53.50;;;;;;5129210;27;45368;-77
2023/01/11 06:40:52;;;;;;;0.73;0.52;;;16.10;53.60;;;;;;5129877;27;45408;-76
2023/01/11 06:43:19;;;;;;;0.40;0.40;;;16.10;54.20;;;;;;5129144;27;45273;-77
2023/01/11 06:45:46;;;;;;;0.60;0.60;;;16.10;53.60;;;;;;5129358;27;45356;-77
2023/01/11 06:48:13;;;;;;;0.57;0.57;;;16.10;53.60;;;;;;5128621;27;45296;-77
2023/01/11 06:50:40;;;;;;;0.60;0.60;;;16.10;53.60;;;;;;5128676;27;45428;-77
2023/01/11 06:53:07;;;;;;;0.57;0.57;;;16.10;54.20;;;;;;5126171;27;46633;-77
2023/01/11 06:55:35;;;;;;;0.45;0.40;;;16.10;53.70;;;;;;5128869;27;45201;-77
2023/01/11 06:58:02;;;;;;;1.77;0.60;;;16.10;53.70;;;;;;5129112;27;45345;-77
2023/01/11 07:00:29;;;;;;;0.63;0.63;;;16.10;53.70;;;;;;5129191;27;45676;-77
2023/01/11 07:02:56;;;;;;;0.52;0.52;;;16.10;53.70;;;;;;5129217;27;46581;-77
2023/01/11 07:05:23;;;;;;;0.70;0.70;;;16.10;53.70;;;;;;5128693;27;45157;-77
2023/01/11 07:07:49;;;;;;;0.63;0.63;;;16.10;53.70;;;;;;5128870;27;45205;-77
2023/01/11 07:10:16;;;;;;;0.75;0.75;;;16.10;53.80;;;;;;5128857;27;45292;-77
2023/01/11 07:12:44;;;;;;;1.10;1.00;;;16.10;54.20;;;;;;5125765;27;46301;-77
2023/01/11 07:15:11;;;;;;;0.70;0.70;;;16.20;53.60;;;;;;5128501;27;45253;-77
2023/01/11 07:17:38;;;;;;;1.20;1.00;;;16.30;53.40;;;;;;5129138;27;45178;-77
2023/01/11 07:20:06;;;;;;;1.40;1.08;;;16.30;53.20;;;;;;5128278;27;45191;-77
2023/01/11 07:22:34;;;;;;;1.10;1.10;;;16.40;53.20;;;;;;5128211;27;46416;-77
2023/01/11 07:25:01;;;;;;;1.42;1.00;;;16.40;53.00;;;;;;5128753;27;45323;-77
2023/01/11 07:27:27;;;;;;;2.00;0.85;;;16.40;53.00;;;;;;5125899;27;45188;-77
2023/01/11 07:29:58;;;;;;;2.13;1.20;;;16.50;52.90;;;;;;5128943;27;45180;-76
2023/01/11 07:32:26;;;;;;;1.33;1.10;;;16.50;52.90;;;;;;5127737;27;46720;-77
2023/01/11 07:34:53;;;;;;;1.58;1.30;;;16.50;52.90;;;;;;5127877;27;45205;-77
2023/01/11 07:37:19;;;;;;;2.88;1.35;;;16.50;52.90;;;;;;5125704;27;45166;-77
2023/01/11 07:39:46;;;;;;;1.83;1.50;;;16.50;52.90;;;;;;5128691;27;45374;-77
2023/01/11 07:44:59;;;;;;;1.70;1.60;;;16.50;52.90;;;;;;5125529;27;45395;-77
2023/01/11 07:47:26;;;;;;;3.45;1.67;;;16.50;52.90;;;;;;5128134;27;45315;-76
2023/01/11 07:49:53;;;;;;;1.73;1.55;;;16.50;52.90;;;;;;5128087;27;45272;-76
2023/01/11 07:52:20;;;;;;;2.83;1.38;;;16.40;52.90;;;;;;5127622;27;46244;-75
2023/01/11 07:54:47;;;;;;;1.70;1.60;;;16.50;53.00;;;;;;5127759;27;45256;-76
2023/01/11 07:57:13;;;;;;;2.80;1.73;;;16.50;53.00;;;;;;5128033;27;45365;-76
2023/01/11 07:59:40;;;;;;;1.85;1.75;;;16.40;53.00;;;;;;5128037;27;45292;-76
2023/01/11 08:02:10;;;;;;;3.00;2.00;;;16.50;53.00;;;;;;5127584;27;45636;-76
2023/01/11 08:04:37;;;;;;;3.33;2.03;;;16.40;53.00;;;;;;5127912;27;45317;-76
2023/01/11 08:07:04;;;;;;;3.30;2.03;;;16.40;53.10;;;;;;5125018;27;45301;-76
2023/01/11 08:09:31;;;;;;;2.67;2.28;;;16.40;53.40;;;;;;5128247;27;45369;-75
2023/01/11 08:14:41;;;;;;;3.05;2.45;;;16.40;53.20;;;;;;5125131;27;45145;-76
2023/01/11 08:17:11;;;;;;;2.50;1.98;;;16.40;53.20;;;;;;5127622;27;45220;-76
2023/01/11 08:19:38;;;;;;;3.38;2.17;;;16.40;53.20;;;;;;5127718;27;45307;-76
2023/01/11 08:22:05;;;;;;;3.92;2.22;;;16.40;53.30;;;;;;5127284;27;45351;-76
2023/01/11 08:24:33;;;;;;;2.75;2.28;;;16.40;53.30;;;;;;5127739;27;45237;-76
2023/01/11 08:27:00;;;;;;;3.00;2.47;;;16.40;53.30;;;;;;5127154;27;45275;-76
2023/01/11 08:29:27;;;;;;;3.28;2.53;;;16.40;53.30;;;;;;5127890;27;45403;-76
2023/01/11 08:31:54;;;;;;;4.70;2.72;;;16.40;53.30;;;;;;5125266;27;45361;-76
2023/01/11 08:34:22;;;;;;;2.85;2.50;;;16.40;53.40;;;;;;5131366;27;45293;-76
2023/01/11 08:36:49;;;;;;;4.50;2.75;;;16.40;53.40;;;;;;5131407;27;45284;-76
2023/01/11 08:39:16;;;;;;;3.40;2.70;;;16.30;53.40;;;;;;5131488;27;45248;-76
2023/01/11 08:41:43;;;;;;;5.20;2.72;;;16.40;53.40;;;;;;5128305;27;45485;-76
2023/01/11 08:44:10;;;;;;;3.17;2.63;;;16.40;53.50;;;;;;5130853;27;45379;-76
2023/01/11 08:46:37;;;;;;;3.78;2.67;;;16.40;53.50;;;;;;5131194;27;45274;-75
2023/01/11 08:49:10;;;;;;;6.28;3.30;;;16.40;53.50;;;;;;5131232;27;45157;-76
2023/01/11 08:51:38;;;;;;;3.33;2.72;;;16.40;53.50;;;;;;5130850;27;47533;-75
2023/01/11 08:54:08;;;;;;;4.30;3.22;;;16.40;53.60;;;;;;5130397;27;45283;-76
2023/01/11 08:56:35;;;;;;;4.40;3.22;;;16.30;53.60;;;;;;5130871;27;45288;-75
2023/01/11 08:59:02;;;;;;;3.30;3.00;;;16.40;53.60;;;;;;5130996;27;45142;-76
2023/01/11 09:01:29;;;;;;;7.00;3.15;;;16.30;53.60;;;;;;5128292;27;45156;-75
2023/01/11 09:03:56;;;;;;;5.47;3.22;;;16.30;53.60;;;;;;5128080;27;45206;-76
2023/01/11 09:06:23;;;;;;;6.80;3.95;;;16.40;53.70;;;;;;5130759;27;45241;-76
2023/01/11 09:08:51;;;;;;;5.50;4.13;;;16.30;53.80;;;;;;5128348;27;45355;-76
2023/01/11 09:14:02;;;;;;;7.07;3.85;;;16.40;54.00;;;;;;5127946;27;45228;-77
2023/01/11 09:16:30;;;;;;;5.90;3.88;;;16.30;53.90;;;;;;5130013;27;45141;-77
2023/01/11 09:18:56;;;;;;;5.25;4.15;;;16.30;54.00;;;;;;5130258;27;45319;-76
2023/01/11 09:21:23;;;;;;;5.93;4.10;;;16.30;54.00;;;;;;5130213;27;45497;-76
2023/01/11 09:23:52;;;;;;;7.47;4.10;;;16.30;54.10;;;;;;5130109;27;45297;-76
2023/01/11 09:26:19;;;;;;;5.13;3.67;;;16.40;54.20;;;;;;5130165;27;45284;-75
2023/01/11 09:28:45;;;;;;;5.30;4.07;;;16.40;54.10;;;;;;5130496;27;45184;-76
2023/01/11 09:31:12;;;;;;;5.63;4.32;;;16.40;54.10;;;;;;5129724;27;45351;-76
2023/01/11 09:33:39;;;;;;;4.90;4.20;;;16.40;54.10;;;;;;5130244;27;45264;-75
2023/01/11 09:36:07;;;;;;;5.93;3.72;;;16.40;54.00;;;;;;5130195;27;45232;-75
2023/01/11 09:38:35;;;;;;;5.35;3.72;;;16.40;54.00;;;;;;5130262;27;45200;-75
2023/01/11 09:41:08;;;;;;;5.30;3.85;;;16.40;53.90;;;;;;5130176;27;45619;-76
2023/01/11 09:43:38;;;;;;;4.70;3.90;;;16.40;54.00;;;;;;5129621;27;45247;-75
2023/01/11 09:46:07;;;;;;;5.47;3.50;;;16.40;53.90;;;;;;5130142;27;45308;-76
2023/01/11 09:48:37;;;;;;;4.55;3.35;;;16.50;53.90;;;;;;5130191;27;45166;-76
2023/01/11 09:51:04;;;;;;;6.07;4.38;;;16.50;53.90;;;;;;5129879;27;46349;-74
2023/01/11 09:53:35;;;;;;;5.25;4.05;;;16.50;54.50;;;;;;5127136;27;45317;-75
2023/01/11 09:56:04;;;;;;;4.55;3.75;;;16.50;53.90;;;;;;5129644;27;45161;-75
2023/01/11 09:58:41;;;;;;;4.60;3.83;;;16.50;53.90;;;;;;5130470;27;45430;-74
2023/01/11 10:01:12;;;;;;;5.18;3.60;;;16.50;53.90;;;;;;5129960;27;45746;-76
2023/01/11 10:04:02;;;;;;;5.03;4.10;;;16.50;53.90;;;;;;5129801;27;45234;-74
2023/01/11 10:06:32;;;;;;;7.57;4.80;;;16.50;53.90;;;;;;5130054;27;45208;-75
2023/01/11 10:09:07;;;;;;;9.48;6.68;;;16.50;54.20;;;;;;5129982;27;45315;-77
2023/01/11 10:11:40;;;;;;;9.60;5.82;;;16.50;54.70;;;;;;5129265;27;46395;-77
2023/01/11 10:14:10;;;;;;;12.05;6.10;;;16.60;54.90;;;;;;5129573;27;45389;-74
2023/01/11 10:16:42;;;;;;;10.35;5.93;;;16.50;54.80;;;;;;5129739;27;45286;-75
2023/01/11 10:19:15;;;;;;;18.73;6.53;;;16.60;55.00;;;;;;5129758;27;45627;-75
2023/01/11 10:21:45;;;;;;;15.05;6.72;;;16.50;54.90;;;;;;5129318;27;46782;-75
2023/01/11 10:24:16;;;;;;;10.18;6.63;;;16.50;55.00;;;;;;5129354;27;46060;-75
2023/01/11 10:26:44;;;;;;;11.25;7.45;;;16.50;55.00;;;;;;5129425;27;45298;-74
2023/01/11 10:29:28;;;;;;;9.55;7.05;;;16.50;55.10;;;;;;5128683;27;45473;-74
2023/01/11 10:32:33;;;;;;;13.50;6.70;;;16.50;55.10;;;;;;5128835;27;46586;-74
2023/01/11 10:35:28;;;;;;;12.32;7.00;;;16.50;55.20;;;;;;5129217;27;45840;-74
2023/01/11 10:38:06;;;;;;;11.57;6.53;;;16.50;55.20;;;;;;5129225;27;45295;-75
2023/01/11 10:41:01;;;;;;;14.77;7.38;;;16.50;55.20;;;;;;5129560;27;45193;-74
2023/01/11 10:43:28;;;;;;;14.05;7.15;;;16.50;55.30;;;;;;5128623;27;46504;-74
2023/01/11 10:45:56;;;;;;;19.17;7.43;;;16.50;55.40;;;;;;5128983;27;45161;-74
2023/01/11 10:48:26;;;;;;;13.93;6.90;;;16.50;55.40;;;;;;5126331;27;45390;-74
2023/01/11 10:50:58;;;;;;;12.02;6.53;;;16.50;55.40;;;;;;5128642;27;45217;-75
2023/01/11 10:53:27;;;;;;;14.10;7.35;;;16.50;55.40;;;;;;5128768;27;45425;-75
2023/01/11 10:55:57;;;;;;;14.35;7.38;;;16.50;55.50;;;;;;5127722;27;45184;-75
2023/01/11 10:58:35;;;;;;;15.25;7.45;;;16.50;55.50;;;;;;5128595;27;45262;-75
2023/01/11 11:01:07;;;;;;;17.98;7.93;;;16.50;55.50;;;;;;5128914;27;45577;-74
2023/01/11 11:03:48;;;;;;;15.98;8.20;;;16.50;56.20;;;;;;5128347;27;48081;-76
2023/01/11 11:06:20;;;;;;;18.40;7.15;;;16.50;55.60;;;;;;5128528;27;45284;-75
2023/01/11 11:08:50;;;;;;;12.40;7.10;;;16.50;55.60;;;;;;5128692;27;45321;-75
2023/01/11 11:11:18;;;;;;;14.32;7.10;;;16.50;55.70;;;;;;5128926;27;45196;-75
2023/01/11 11:13:51;;;;;;;13.70;7.03;;;16.50;55.60;;;;;;5128928;27;45294;-75
2023/01/11 11:16:33;;;;;;;10.23;6.75;;;16.50;55.60;;;;;;5128417;27;45423;-75
2023/01/11 11:19:00;;;;;;;11.10;6.63;;;16.50;55.70;;;;;;5128845;27;45218;-75
2023/01/11 11:21:28;;;;;;;11.35;6.93;;;16.50;55.70;;;;;;5128866;27;45390;-76
2023/01/11 11:23:57;;;;;;;16.00;6.68;;;16.50;55.70;;;;;;5127943;27;46943;-74
2023/01/11 11:26:26;;;;;;;14.75;7.00;;;16.50;55.80;;;;;;5127680;27;45242;-75
2023/01/11 11:29:01;;;;;;;12.48;6.53;;;16.50;55.80;;;;;;5128521;27;45269;-76
2023/01/11 11:31:28;;;;;;;11.88;6.13;;;16.50;55.80;;;;;;5128184;27;45253;-76
2023/01/11 11:33:55;;;;;;;10.93;5.80;;;16.50;55.80;;;;;;5128137;27;46679;-76
2023/01/11 11:36:22;;;;;;;12.57;6.50;;;16.50;55.80;;;;;;5128110;27;45369;-75
2023/01/11 11:39:01;;;;;;;12.23;6.32;;;16.50;55.80;;;;;;5128941;27;45236;-75
2023/01/11 11:41:28;;;;;;;10.73;5.60;;;16.50;55.80;;;;;;5129050;27;45405;-76
2023/01/11 11:44:15;;;;;;;6.78;5.53;;;16.50;55.80;;;;;;5128033;27;46730;-75
2023/01/11 11:46:43;;;;;;;14.52;4.88;;;16.50;55.90;;;;;;5128211;27;45291;-75
2023/01/11 11:49:15;;;;;;;8.02;4.95;;;16.50;55.90;;;;;;5127921;27;45182;-75
2023/01/11 11:51:42;;;;;;;9.63;4.85;;;16.50;55.80;;;;;;5128120;27;45569;-74
2023/01/11 11:54:16;;;;;;;9.63;5.70;;;16.50;56.50;;;;;;5127894;27;46682;-75
2023/01/11 11:56:43;;;;;;;6.13;5.20;;;16.50;55.90;;;;;;5128090;27;45296;-75
2023/01/11 11:59:14;;;;;;;6.70;4.80;;;16.50;55.80;;;;;;5127952;27;45267;-75
2023/01/11 12:01:45;;;;;;;10.90;5.53;;;16.50;55.70;;;;;;5128064;27;45447;-75
2023/01/11 12:04:13;;;;;;;7.18;4.90;;;16.50;55.60;;;;;;5127711;27;45609;-74
2023/01/11 12:06:40;;;;;;;7.05;4.60;;;16.50;55.70;;;;;;5129813;27;45426;-74
2023/01/11 12:09:11;;;;;;;9.27;4.45;;;16.50;55.70;;;;;;5131392;27;45301;-75
2023/01/11 12:11:40;;;;;;;8.43;4.75;;;16.50;55.70;;;;;;5131872;27;45218;-74
2023/01/11 12:14:18;;;;;;;6.57;4.50;;;16.50;55.70;;;;;;5131336;27;47070;-75
2023/01/11 12:16:45;;;;;;;6.60;4.15;;;16.50;55.80;;;;;;5131219;27;45212;-74
2023/01/11 12:19:29;;;;;;;6.50;3.92;;;16.60;56.00;;;;;;5131433;27;45222;-74
2023/01/11 12:22:10;;;;;;;4.35;3.55;;;16.60;56.10;;;;;;5131500;27;45194;-74
2023/01/11 12:24:36;;;;;;;7.00;4.07;;;16.60;56.20;;;;;;5131152;27;45748;-75
2023/01/11 12:27:07;;;;;;;12.95;3.85;;;16.60;56.20;;;;;;5131216;27;45355;-74
2023/01/11 12:29:43;;;;;;;6.55;3.92;;;16.60;56.20;;;;;;5131352;27;45256;-74
2023/01/11 12:32:20;;;;;;;6.05;3.47;;;16.60;56.20;;;;;;5131456;27;45521;-74
2023/01/11 12:34:57;;;;;;;5.78;3.22;;;16.60;56.10;;;;;;5130943;27;46334;-75
2023/01/11 12:37:30;;;;;;;7.00;4.00;;;16.60;56.10;;;;;;5130992;27;45234;-75
2023/01/11 12:40:01;;;;;;;7.15;3.10;;;16.60;56.00;;;;;;5131090;27;45306;-74
2023/01/11 12:42:37;;;;;;;4.07;3.67;;;16.60;56.10;;;;;;5131294;27;45235;-75
2023/01/11 12:45:13;;;;;;;5.45;3.20;;;16.60;56.10;;;;;;5130812;27;47225;-75
2023/01/11 12:47:50;;;;;;;4.85;3.28;;;16.60;56.00;;;;;;5131176;27;45345;-74
2023/01/11 12:50:19;;;;;;;3.95;2.97;;;16.60;56.00;;;;;;5130480;27;45255;-74
2023/01/11 12:52:53;;;;;;;3.20;2.85;;;16.60;56.00;;;;;;5131146;27;45426;-74
2023/01/11 12:55:28;;;;;;;4.10;3.03;;;16.60;56.00;;;;;;5130155;27;47259;-74
2023/01/11 12:58:00;;;;;;;5.43;3.42;;;16.60;56.10;;;;;;5130710;27;45134;-75
2023/01/11 13:00:43;;;;;;;6.25;2.70;;;16.60;56.00;;;;;;5130798;27;45305;-74
2023/01/11 13:03:33;;;;;;;4.07;2.97;;;16.60;56.10;;;;;;5131143;27;45485;-74
2023/01/11 13:06:04;;;;;;;3.28;2.58;;;16.60;56.10;;;;;;5130562;27;46400;-73
2023/01/11 13:08:37;;;;;;;3.72;3.00;;;16.70;56.10;;;;;;5130625;27;45256;-73
2023/01/11 13:11:07;;;;;;;3.00;2.50;;;16.70;56.00;;;;;;5130673;27;45185;-73
2023/01/11 13:13:36;;;;;;;3.58;2.40;;;16.60;56.00;;;;;;5130636;27;45407;-74
2023/01/11 13:16:07;;;;;;;3.67;2.40;;;16.70;56.10;;;;;;5130217;27;46666;-74
2023/01/11 13:18:37;;;;;;;3.05;2.10;;;16.70;56.00;;;;;;5129450;27;45307;-73
2023/01/11 13:21:10;;;;;;;2.83;2.17;;;16.70;56.10;;;;;;5130372;27;45181;-73
2023/01/11 13:23:39;;;;;;;4.13;2.30;;;16.70;56.00;;;;;;5130715;27;45524;-74
2023/01/11 13:26:13;;;;;;;2.13;1.90;;;16.70;56.20;;;;;;5129644;27;47692;-74